Time;durP1;ratioP1;P1;durP2;ratioP2;P2;SDS_P1;SDS_P2;PMS_P1;PMS_P2;Temp;Humidity;BMP_temperature;BMP_pressure;BME280_temperature;BME280_humidity;BME280_pressure;Samples;Min_cycle;Max_cycle;Signal;HPM_P1;HPM_P2
2021/01/25 00:01:30;;;;;;;17.33;12.23;;;;;;;8.44;44.57;100490.78;5074530;28;20029;-80
2021/01/25 00:03:56;;;;;;;16.33;12.00;;;;;;;8.53;44.47;100494.41;5073725;28;20020;-80
2021/01/25 00:06:21;;;;;;;15.20;11.63;;;;;;;8.50;44.47;100495.03;5073613;28;20116;-80
2021/01/25 00:08:47;;;;;;;16.60;12.83;;;;;;;8.49;44.62;100502.38;5074557;28;20036;-80
2021/01/25 00:11:12;;;;;;;18.33;11.57;;;;;;;8.51;44.20;100491.19;5073658;28;20117;-80
2021/01/25 00:13:38;;;;;;;17.20;11.77;;;;;;;8.53;44.34;100489.75;5056729;28;20132;-80
2021/01/25 00:16:04;;;;;;;17.13;12.30;;;;;;;8.55;44.01;100495.72;5073504;28;20033;-80
2021/01/25 00:18:30;;;;;;;15.83;11.10;;;;;;;8.49;44.31;100488.78;5073460;28;20425;-80
2021/01/25 00:20:56;;;;;;;15.20;11.17;;;;;;;8.43;44.35;100489.97;5073476;28;20029;-81
2021/01/25 00:23:21;;;;;;;16.23;11.23;;;;;;;8.35;44.53;100490.69;5073460;28;20155;-81
2021/01/25 00:25:47;;;;;;;14.77;11.30;;;;;;;8.49;44.07;100490.69;5073239;28;20486;-81
2021/01/25 00:28:13;;;;;;;13.67;10.93;;;;;;;8.45;44.49;100487.75;5073259;28;20039;-80
2021/01/25 00:30:41;;;;;;;14.53;11.03;;;;;;;8.45;44.08;100493.19;5074562;28;20032;-80
2021/01/25 00:33:06;;;;;;;17.83;11.17;;;;;;;8.56;44.17;100485.63;5056283;28;20090;-80
2021/01/25 00:35:32;;;;;;;14.90;9.93;;;;;;;8.48;44.53;100491.81;5073089;28;20032;-80
2021/01/25 00:37:57;;;;;;;19.00;10.70;;;;;;;8.36;44.70;100497.75;5056370;28;20541;-80
2021/01/25 00:40:23;;;;;;;17.97;11.60;;;;;;;8.24;45.02;100505.63;5073076;28;20031;-80
2021/01/25 00:42:48;;;;;;;16.03;10.43;;;;;;;8.33;44.75;100504.59;5074370;28;20040;-80
2021/01/25 00:45:14;;;;;;;17.77;11.17;;;;;;;8.36;44.53;100505.13;5072851;28;20028;-79
2021/01/25 00:47:40;;;;;;;15.17;11.00;;;;;;;8.36;44.27;100503.19;5074065;28;20029;-79
2021/01/25 00:50:06;;;;;;;15.17;10.27;;;;;;;8.40;44.24;100500.69;5072838;28;20024;-81
2021/01/25 00:52:32;;;;;;;17.77;11.70;;;;;;;8.38;44.24;100508.34;5056170;28;20071;-80
2021/01/25 00:54:58;;;;;;;16.23;11.33;;;;;;;8.36;44.50;100502.41;5074106;28;20029;-80
2021/01/25 00:57:24;;;;;;;18.00;9.70;;;;;;;8.17;44.62;100514.19;5074041;28;20074;-79
2021/01/25 00:59:50;;;;;;;16.83;10.60;;;;;;;8.38;44.54;100508.34;5072762;28;20024;-80
2021/01/25 01:02:15;;;;;;;14.87;10.73;;;;;;;8.49;44.18;100510.56;5073796;28;20032;-80
2021/01/25 01:04:41;;;;;;;15.03;10.13;;;;;;;8.48;44.18;100513.59;5072487;28;20597;-80
2021/01/25 01:07:06;;;;;;;15.47;10.80;;;;;;;8.43;44.59;100506.31;5073735;28;20029;-80
2021/01/25 01:09:32;;;;;;;13.77;10.33;;;;;;;8.42;44.17;100510.16;5073610;28;20395;-80
2021/01/25 01:11:57;;;;;;;13.40;10.23;;;;;;;8.39;44.46;100523.56;5071922;28;20052;-81
2021/01/25 01:14:23;;;;;;;13.50;10.43;;;;;;;8.15;44.95;100521.81;5071600;28;20032;-80
2021/01/25 01:16:49;;;;;;;14.23;9.67;;;;;;;8.37;44.01;100523.88;5072096;28;20025;-80
2021/01/25 01:19:15;;;;;;;14.33;9.77;;;;;;;8.21;44.85;100528.78;5072247;28;20040;-80
2021/01/25 01:21:41;;;;;;;22.87;11.63;;;;;;;8.25;44.72;100535.25;5072251;28;20028;-80
2021/01/25 01:24:07;;;;;;;11.40;9.53;;;;;;;8.26;44.61;100539.56;5073543;28;20036;-80
2021/01/25 01:26:32;;;;;;;13.10;10.13;;;;;;;8.12;45.07;100543.41;5073378;28;20363;-81
2021/01/25 01:28:58;;;;;;;14.50;10.30;;;;;;;8.29;44.77;100543.59;5071943;28;20021;-80
2021/01/25 01:31:24;;;;;;;13.27;10.10;;;;;;;8.29;44.79;100555.28;5071962;28;20115;-80
2021/01/25 01:33:49;;;;;;;12.00;9.20;;;;;;;8.29;44.74;100549.03;5071974;28;20056;-80
2021/01/25 01:36:15;;;;;;;11.97;9.23;;;;;;;8.11;44.93;100561.66;5073127;28;20040;-80
2021/01/25 01:38:41;;;;;;;15.43;9.80;;;;;;;8.34;44.82;100563.38;5071822;28;20024;-80
2021/01/25 01:41:07;;;;;;;17.93;10.70;;;;;;;8.30;45.04;100550.66;5073120;28;20033;-81
2021/01/25 01:43:33;;;;;;;14.47;10.57;;;;;;;8.43;44.30;100549.09;5073252;28;20111;-79
2021/01/25 01:45:58;;;;;;;14.77;10.47;;;;;;;8.26;45.28;100555.91;5071773;28;20147;-80
2021/01/25 01:48:25;;;;;;;18.53;11.20;;;;;;;8.34;44.71;100549.75;5071756;28;20029;-81
2021/01/25 01:50:51;;;;;;;15.23;10.17;;;;;;;8.35;44.90;100553.31;5071579;28;20059;-80
2021/01/25 01:53:16;;;;;;;12.13;9.80;;;;;;;8.27;45.26;100545.81;5071544;28;20036;-80
2021/01/25 01:55:42;;;;;;;12.83;9.67;;;;;;;8.52;44.53;100552.69;5071651;28;20041;-80
2021/01/25 01:58:09;;;;;;;15.43;10.83;;;;;;;8.37;44.88;100553.00;5071615;28;20029;-80
2021/01/25 02:00:34;;;;;;;13.53;9.97;;;;;;;8.30;45.21;100567.00;5071690;28;20032;-81
2021/01/25 02:03:00;;;;;;;15.43;10.00;;;;;;;8.36;45.34;100560.38;5072878;28;20025;-79
2021/01/25 02:05:26;;;;;;;13.97;10.40;;;;;;;8.27;45.54;100559.44;5071611;28;20024;-81
2021/01/25 02:07:53;;;;;;;14.03;9.93;;;;;;;8.26;45.21;100561.34;5071593;28;20415;-80
2021/01/25 02:10:20;;;;;;;16.10;10.23;;;;;;;8.34;45.05;100568.81;5072708;28;20440;-80
2021/01/25 02:12:55;;;;;;;13.57;10.20;;;;;;;8.11;45.90;100572.53;5071375;28;20101;-80
2021/01/25 02:15:22;;;;;;;14.00;10.70;;;;;;;8.21;45.64;100576.97;5071423;28;20028;-80
2021/01/25 02:17:52;;;;;;;15.80;10.07;;;;;;;8.26;45.36;100579.59;5071462;28;20213;-80
2021/01/25 02:20:25;;;;;;;13.63;10.30;;;;;;;8.19;45.77;100574.56;5072721;28;20493;-81
2021/01/25 02:23:22;;;;;;;11.80;9.67;;;;;;;8.30;45.52;100580.59;5071412;28;20029;-80
2021/01/25 02:26:41;;;;;;;15.00;10.63;;;;;;;8.22;45.84;100576.66;5071222;28;20028;-81
2021/01/25 02:29:06;;;;;;;13.37;10.27;;;;;;;8.22;45.59;100575.84;5039643;28;20406;-80
2021/01/25 02:31:32;;;;;;;15.03;11.50;;;;;;;8.26;45.34;100585.84;5071260;28;20028;-81
2021/01/25 02:33:59;;;;;;;15.37;10.40;;;;;;;8.31;45.14;100585.78;5071412;28;20394;-80
2021/01/25 02:36:27;;;;;;;16.63;10.60;;;;;;;8.16;45.13;100596.94;5072701;28;20078;-81
2021/01/25 02:38:54;;;;;;;18.27;11.60;;;;;;;8.15;45.31;100592.56;5071427;28;20025;-80
2021/01/25 02:41:26;;;;;;;14.40;10.60;;;;;;;8.01;45.77;100599.91;5071327;28;20021;-80
2021/01/25 02:43:52;;;;;;;16.73;10.90;;;;;;;8.23;45.41;100597.31;5071241;28;20028;-81
2021/01/25 02:46:19;;;;;;;14.67;11.43;;;;;;;8.22;45.36;100590.28;5072399;28;20055;-80
2021/01/25 02:48:44;;;;;;;14.77;10.57;;;;;;;8.13;45.73;100594.00;5071089;28;20024;-79
2021/01/25 02:51:12;;;;;;;15.37;10.80;;;;;;;8.18;45.19;100596.63;5071144;28;20154;-80
2021/01/25 02:53:37;;;;;;;14.53;10.47;;;;;;;8.25;45.06;100595.13;5072340;28;20060;-79
2021/01/25 02:56:05;;;;;;;13.87;10.10;;;;;;;8.22;45.59;100601.16;5072296;28;20579;-80
2021/01/25 02:58:30;;;;;;;15.53;10.77;;;;;;;8.28;45.30;100605.41;5047989;28;20032;-80
2021/01/25 03:00:57;;;;;;;13.03;8.83;;;;;;;8.09;45.21;100607.41;5070902;28;20020;-79
2021/01/25 03:03:23;;;;;;;13.57;9.77;;;;;;;8.23;45.60;100604.69;5071203;28;20050;-79
2021/01/25 03:05:49;;;;;;;14.50;10.07;;;;;;;8.15;45.74;100614.34;5071132;28;20493;-80
2021/01/25 03:08:15;;;;;;;14.90;9.13;;;;;;;8.04;46.00;100618.38;5070512;28;20492;-80
2021/01/25 03:10:41;;;;;;;13.87;9.80;;;;;;;7.91;46.24;100605.53;5071101;28;20055;-80
2021/01/25 03:13:07;;;;;;;13.73;9.97;;;;;;;8.21;45.35;100618.59;5070544;28;20048;-80
2021/01/25 03:15:35;;;;;;;14.70;9.63;;;;;;;8.26;44.97;100618.53;5072201;28;20114;-81
2021/01/25 03:18:02;;;;;;;14.53;9.80;;;;;;;7.98;45.84;100614.13;5072187;28;20029;-80
2021/01/25 03:20:28;;;;;;;12.57;9.57;;;;;;;8.12;45.57;100620.41;5072188;28;20020;-80
2021/01/25 03:22:53;;;;;;;16.33;11.43;;;;;;;7.94;46.24;100621.28;5070827;28;20115;-81
2021/01/25 03:25:19;;;;;;;15.07;10.70;;;;;;;8.00;45.78;100620.06;5072085;28;20429;-81
2021/01/25 03:27:45;;;;;;;13.70;10.13;;;;;;;8.10;45.40;100621.81;5070674;28;20036;-80
2021/01/25 03:30:12;;;;;;;14.40;9.47;;;;;;;7.99;45.74;100616.53;5071969;28;20506;-80
2021/01/25 03:32:37;;;;;;;14.23;10.27;;;;;;;8.16;45.50;100626.88;5053745;28;20043;-81
2021/01/25 03:35:05;;;;;;;14.43;10.17;;;;;;;7.94;46.22;100634.88;5070571;28;20025;-81
2021/01/25 03:37:31;;;;;;;13.90;10.27;;;;;;;8.05;45.60;100633.59;5074469;28;20479;-81
2021/01/25 03:39:57;;;;;;;18.00;10.90;;;;;;;7.89;46.01;100634.97;5073937;28;20028;-80
2021/01/25 03:42:22;;;;;;;15.97;9.93;;;;;;;7.94;45.89;100635.69;5074262;28;20036;-80
2021/01/25 03:44:48;;;;;;;15.23;10.63;;;;;;;8.16;45.48;100637.75;5074991;28;20108;-81
2021/01/25 03:47:13;;;;;;;13.70;9.87;;;;;;;8.01;45.65;100647.00;5074688;28;20113;-81
2021/01/25 03:49:39;;;;;;;14.03;10.63;;;;;;;7.88;46.00;100641.50;5073985;28;20101;-81
2021/01/25 03:52:05;;;;;;;13.60;9.43;;;;;;;7.97;45.73;100639.72;5075348;28;20028;-80
2021/01/25 03:54:30;;;;;;;13.70;10.00;;;;;;;7.72;46.59;100649.91;5073860;28;20107;-80
2021/01/25 03:56:56;;;;;;;13.57;10.43;;;;;;;7.85;46.11;100642.88;5090578;28;20028;-81
2021/01/25 03:59:21;;;;;;;13.40;10.03;;;;;;;7.83;46.12;100642.38;5075246;28;20036;-80
2021/01/25 04:01:47;;;;;;;16.60;11.33;;;;;;;7.96;45.70;100641.63;5073682;28;20025;-80
2021/01/25 04:04:12;;;;;;;13.67;10.03;;;;;;;8.00;45.66;100641.81;5075087;28;20025;-81
2021/01/25 04:06:38;;;;;;;15.33;11.10;;;;;;;7.98;46.05;100638.59;5073884;28;20035;-80
2021/01/25 04:09:07;;;;;;;13.20;9.73;;;;;;;8.07;45.65;100639.53;5073445;28;20024;-80
2021/01/25 04:11:33;;;;;;;16.80;11.27;;;;;;;8.10;45.68;100643.59;5074704;28;20111;-81
2021/01/25 04:13:59;;;;;;;14.90;9.87;;;;;;;7.82;46.13;100637.25;5073717;28;20054;-82
2021/01/25 04:16:27;;;;;;;13.03;10.47;;;;;;;7.83;45.88;100647.03;5074519;28;20032;-80
2021/01/25 04:18:54;;;;;;;14.70;10.90;;;;;;;8.06;45.58;100641.44;5073453;28;20108;-81
2021/01/25 04:21:20;;;;;;;13.63;10.50;;;;;;;8.01;45.88;100649.72;5073432;28;20024;-80
2021/01/25 04:23:45;;;;;;;13.97;10.10;;;;;;;7.63;47.07;100651.69;5073567;28;20578;-81
2021/01/25 04:26:11;;;;;;;13.97;10.93;;;;;;;7.83;46.14;100649.75;5073520;28;20051;-80
2021/01/25 04:28:38;;;;;;;16.47;11.50;;;;;;;7.96;45.96;100652.50;5073390;28;20021;-82
2021/01/25 04:31:03;;;;;;;15.90;10.53;;;;;;;7.96;45.73;100655.25;5073148;28;20024;-81
2021/01/25 04:33:29;;;;;;;14.17;11.37;;;;;;;7.85;45.89;100651.06;5073267;28;20552;-80
2021/01/25 04:35:54;;;;;;;15.00;10.37;;;;;;;7.91;45.78;100658.03;5073161;28;20047;-80
2021/01/25 04:38:20;;;;;;;17.53;11.23;;;;;;;7.86;46.21;100660.84;5073096;28;20399;-81
2021/01/25 04:40:46;;;;;;;13.37;10.77;;;;;;;7.77;46.47;100662.59;5073060;28;20501;-81
2021/01/25 04:43:12;;;;;;;17.43;11.53;;;;;;;7.80;46.55;100664.75;5074278;28;20028;-82
2021/01/25 04:45:38;;;;;;;18.60;11.43;;;;;;;7.77;46.37;100662.59;5074262;28;20024;-81
2021/01/25 04:48:05;;;;;;;18.13;12.50;;;;;;;7.97;45.78;100669.66;5072959;28;20486;-81
2021/01/25 04:50:31;;;;;;;18.67;12.47;;;;;;;7.91;45.90;100682.50;5072880;28;20166;-81
2021/01/25 04:52:59;;;;;;;17.67;11.37;;;;;;;7.76;46.11;100682.75;5072801;28;20041;-80
2021/01/25 04:55:26;;;;;;;20.50;12.50;;;;;;;7.57;46.95;100680.06;5072852;28;20093;-82
2021/01/25 04:57:53;;;;;;;15.33;11.27;;;;;;;7.73;46.34;100689.59;5072738;28;20398;-80
2021/01/25 05:00:19;;;;;;;16.93;10.77;;;;;;;7.57;46.65;100679.25;5072654;28;20123;-80
2021/01/25 05:02:45;;;;;;;14.70;11.40;;;;;;;7.77;46.31;100674.28;5072605;28;20033;-80
2021/01/25 05:05:11;;;;;;;14.43;10.47;;;;;;;7.62;47.03;100673.72;5073877;28;20031;-81
2021/01/25 05:07:38;;;;;;;18.63;12.03;;;;;;;7.66;46.93;100672.84;5072522;28;20486;-81
2021/01/25 05:10:06;;;;;;;14.43;11.17;;;;;;;7.61;46.72;100681.06;5072421;28;20028;-81
2021/01/25 05:12:42;;;;;;;13.93;10.20;;;;;;;7.48;46.94;100684.50;5073559;28;20051;-80
2021/01/25 05:15:10;;;;;;;18.43;12.00;;;;;;;7.49;46.95;100692.41;5073693;28;20199;-81
2021/01/25 05:17:37;;;;;;;19.23;12.53;;;;;;;7.67;46.33;100684.53;5072457;28;20024;-81
2021/01/25 05:20:07;;;;;;;16.17;10.83;;;;;;;7.44;46.75;100687.03;5072301;28;20029;-81
2021/01/25 05:22:37;;;;;;;14.67;10.70;;;;;;;7.34;46.93;100689.91;5072445;28;20119;-81
2021/01/25 05:25:03;;;;;;;16.38;10.80;;;;;;;7.51;47.11;100697.53;5072270;28;20020;-80
2021/01/25 05:27:30;;;;;;;16.10;11.57;;;;;;;7.43;47.25;100690.84;5055768;28;20039;-81
2021/01/25 05:30:11;;;;;;;16.63;11.80;;;;;;;7.54;46.42;100701.56;5072271;28;20525;-81
2021/01/25 05:32:49;;;;;;;15.87;11.87;;;;;;;7.56;46.42;100696.63;5055842;28;20032;-81
2021/01/25 05:35:16;;;;;;;17.57;12.43;;;;;;;7.57;46.32;100696.38;5071992;28;20396;-79
2021/01/25 05:37:43;;;;;;;17.50;10.97;;;;;;;7.62;46.75;100699.00;5072092;28;20029;-80
2021/01/25 05:40:15;;;;;;;16.83;11.27;;;;;;;7.57;46.42;100701.81;5073265;28;20044;-82
2021/01/25 05:42:41;;;;;;;15.67;10.73;;;;;;;7.59;46.70;100709.66;5071981;28;20039;-79
2021/01/25 05:45:11;;;;;;;15.60;10.97;;;;;;;7.43;47.06;100718.03;5071840;28;20162;-80
2021/01/25 05:47:55;;;;;;;16.77;11.73;;;;;;;7.45;46.96;100710.38;5073230;28;20357;-81
2021/01/25 05:50:35;;;;;;;16.67;11.43;;;;;;;7.35;47.38;100721.41;5071828;28;20119;-80
2021/01/25 05:53:04;;;;;;;17.93;10.87;;;;;;;7.53;46.69;100719.81;5073033;28;20024;-81
2021/01/25 05:55:29;;;;;;;16.00;10.40;;;;;;;7.55;46.72;100714.88;5071806;28;20177;-80
2021/01/25 05:57:56;;;;;;;17.60;10.80;;;;;;;7.54;46.56;100718.69;5071762;28;20058;-83
2021/01/25 06:00:22;;;;;;;17.93;11.10;;;;;;;7.69;46.34;100723.91;5071163;28;20032;-80
2021/01/25 06:02:50;;;;;;;15.07;10.50;;;;;;;7.71;46.34;100726.38;5071681;28;20368;-80
2021/01/25 06:05:24;;;;;;;14.20;10.33;;;;;;;7.82;45.69;100718.84;5071541;28;20028;-80
2021/01/25 06:07:51;;;;;;;16.30;10.30;;;;;;;8.00;45.33;100723.47;5072794;28;20083;-80
2021/01/25 06:10:25;;;;;;;15.37;10.37;;;;;;;8.01;45.17;100731.34;5072637;28;20379;-80
2021/01/25 06:13:05;;;;;;;13.37;9.33;;;;;;;8.10;45.46;100722.50;5071263;28;20058;-81
2021/01/25 06:15:33;;;;;;;16.90;11.57;;;;;;;8.23;44.91;100724.47;5055343;28;20020;-81
2021/01/25 06:17:59;;;;;;;20.10;9.90;;;;;;;7.86;46.00;100725.31;5071384;28;20032;-79
2021/01/25 06:20:28;;;;;;;14.83;10.50;;;;;;;7.97;45.28;100729.50;5072522;28;20479;-79
2021/01/25 06:22:55;;;;;;;14.43;9.10;;;;;;;8.02;45.30;100732.16;5054514;28;20032;-79
2021/01/25 06:25:21;;;;;;;16.43;9.63;;;;;;;8.07;45.63;100737.50;5071268;28;20509;-80
2021/01/25 06:27:47;;;;;;;13.50;10.17;;;;;;;8.03;45.80;100739.22;5071260;28;20429;-80
2021/01/25 06:30:13;;;;;;;13.73;10.23;;;;;;;7.86;46.20;100741.63;5071215;28;20024;-78
2021/01/25 06:32:42;;;;;;;13.43;9.60;;;;;;;7.91;46.15;100752.44;5071055;28;20439;-80
2021/01/25 06:35:11;;;;;;;12.35;9.20;;;;;;;7.88;46.03;100745.69;5072458;28;20094;-80
2021/01/25 06:37:37;;;;;;;14.10;11.15;;;;;;;7.83;46.37;100751.19;5071051;28;20059;-80
2021/01/25 06:40:11;;;;;;;16.27;10.27;;;;;;;8.01;46.04;100755.84;5071321;28;20070;-80
2021/01/25 06:42:41;;;;;;;17.00;9.77;;;;;;;7.78;46.39;100753.97;5071258;28;20123;-80
2021/01/25 06:45:07;;;;;;;12.85;10.05;;;;;;;7.87;46.03;100756.88;5071143;28;20024;-82
2021/01/25 06:47:35;;;;;;;18.63;9.23;;;;;;;8.01;45.45;100760.44;5072642;28;20033;-81
2021/01/25 06:50:02;;;;;;;13.90;9.40;;;;;;;8.02;45.58;100760.19;5054718;28;20040;-81
2021/01/25 06:52:30;;;;;;;13.03;8.37;;;;;;;7.86;45.77;100757.94;5072293;28;20032;-80
2021/01/25 06:55:02;;;;;;;22.07;10.87;;;;;;;7.89;45.90;100766.34;5071111;28;20047;-80
2021/01/25 06:57:32;;;;;;;14.17;9.73;;;;;;;7.95;45.88;100767.09;5072345;28;20032;-79
2021/01/25 07:00:08;;;;;;;16.25;9.10;;;;;;;7.89;45.80;100769.06;5071225;28;20025;-83
2021/01/25 07:02:33;;;;;;;15.83;9.10;;;;;;;7.71;46.09;100770.69;5072570;28;20033;-80
2021/01/25 07:04:59;;;;;;;11.57;8.23;;;;;;;7.88;45.58;100778.34;5071089;28;20494;-80
2021/01/25 07:07:32;;;;;;;15.13;9.63;;;;;;;7.86;45.50;100780.56;5071115;28;20023;-81
2021/01/25 07:09:58;;;;;;;14.87;8.97;;;;;;;7.78;46.28;100781.19;5070964;28;20029;-80
2021/01/25 07:12:28;;;;;;;15.50;9.63;;;;;;;7.85;45.40;100778.91;5073632;28;20049;-81
2021/01/25 07:14:54;;;;;;;16.50;10.07;;;;;;;8.00;45.44;100780.59;5074830;28;20457;-80
2021/01/25 07:17:20;;;;;;;17.07;11.17;;;;;;;7.93;45.36;100785.59;5074860;28;20111;-81
2021/01/25 07:19:45;;;;;;;13.97;10.13;;;;;;;7.89;45.48;100787.31;5074841;28;20020;-80
2021/01/25 07:22:11;;;;;;;17.07;10.03;;;;;;;7.88;45.88;100793.84;5074636;28;20110;-79
2021/01/25 07:24:38;;;;;;;18.63;12.53;;;;;;;7.98;45.47;100815.47;5075705;28;20020;-79
2021/01/25 07:27:05;;;;;;;17.97;9.47;;;;;;;7.93;45.52;100810.09;5074353;28;20025;-79
2021/01/25 07:29:31;;;;;;;12.57;8.50;;;;;;;7.79;46.24;100815.47;5074364;28;20494;-80
2021/01/25 07:31:58;;;;;;;12.10;8.43;;;;;;;7.98;45.64;100824.44;5057663;28;20067;-80
2021/01/25 07:34:25;;;;;;;14.27;8.67;;;;;;;7.94;45.40;100817.19;5074085;28;20029;-80
2021/01/25 07:36:52;;;;;;;15.37;7.97;;;;;;;7.86;45.85;100812.38;5075073;28;20390;-79
2021/01/25 07:39:19;;;;;;;12.87;7.80;;;;;;;7.79;46.01;100820.91;5075351;28;20028;-82
2021/01/25 07:41:46;;;;;;;14.17;8.33;;;;;;;7.80;45.75;100825.25;5056472;28;20561;-82
2021/01/25 07:44:13;;;;;;;12.13;8.90;;;;;;;7.83;45.82;100821.13;5073938;28;20068;-81
2021/01/25 07:46:40;;;;;;;13.07;8.40;;;;;;;7.99;45.71;100834.22;5073678;28;20364;-80
2021/01/25 07:49:06;;;;;;;14.17;7.73;;;;;;;8.20;44.81;100834.75;5074180;28;20024;-81
2021/01/25 07:51:33;;;;;;;12.67;7.50;;;;;;;8.10;45.00;100834.09;5075451;28;20028;-79
2021/01/25 07:54:01;;;;;;;11.10;8.17;;;;;;;8.25;44.72;100837.41;5075451;28;20028;-80
2021/01/25 07:56:27;;;;;;;13.80;7.40;;;;;;;8.19;44.92;100844.03;5074141;28;20048;-80
2021/01/25 07:59:16;;;;;;;11.33;7.00;;;;;;;8.00;45.11;100851.34;5073858;28;20363;-80
2021/01/25 08:01:53;;;;;;;12.17;6.77;;;;;;;7.85;45.56;100846.13;5057947;28;20063;-79
2021/01/25 08:04:27;;;;;;;11.67;7.10;;;;;;;7.78;45.74;100850.03;5074351;28;20024;-84
2021/01/25 08:06:56;;;;;;;11.10;7.50;;;;;;;7.88;45.70;100849.06;5071445;28;20028;-79
2021/01/25 08:09:22;;;;;;;13.27;8.30;;;;;;;7.66;46.19;100854.25;5069425;28;20054;-80
2021/01/25 08:11:49;;;;;;;9.93;6.90;;;;;;;7.68;45.99;100858.28;5071103;28;20055;-80
2021/01/25 08:14:33;;;;;;;13.03;7.23;;;;;;;7.49;46.37;100862.88;5073407;28;20039;-80
2021/01/25 08:17:03;;;;;;;11.43;7.83;;;;;;;7.89;45.78;100867.00;5073749;28;20173;-79
2021/01/25 08:19:54;;;;;;;16.50;12.18;;;;;;;7.87;45.56;100868.41;5073136;28;20024;-79
2021/01/25 08:22:42;;;;;;;21.00;16.77;;;;;;;8.04;44.93;100871.44;5074130;28;20033;-79
2021/01/25 08:25:21;;;;;;;17.30;9.57;;;;;;;7.99;45.23;100871.50;5073196;28;20029;-77
2021/01/25 08:28:15;;;;;;;13.63;11.20;;;;;;;8.00;45.39;100878.56;5053568;28;20387;-79
2021/01/25 08:30:48;;;;;;;11.70;8.87;;;;;;;8.13;44.34;100871.59;5053349;28;20140;-78
2021/01/25 08:33:29;;;;;;;14.87;9.53;;;;;;;8.08;44.74;100883.34;5054426;28;20383;-78
2021/01/25 08:35:58;;;;;;;31.47;22.13;;;;;;;7.85;45.14;100879.56;5074065;28;20390;-78
2021/01/25 08:38:30;;;;;;;13.10;8.27;;;;;;;7.82;45.16;100888.31;5072943;28;20101;-79
2021/01/25 08:40:59;;;;;;;13.67;9.37;;;;;;;7.87;45.42;100890.19;5072583;28;20130;-81
2021/01/25 08:43:29;;;;;;;;;;;;;;;7.44;46.38;100887.41;5069927;28;20024;-79
2021/01/25 08:46:07;;;;;;;;;;;;;;;7.47;46.42;100884.09;5071303;28;19955;-81
2021/01/25 08:48:33;;;;;;;10.23;8.40;;;;;;;7.74;45.59;100897.13;5052915;28;19942;-79
2021/01/25 08:51:16;;;;;;;10.07;7.57;;;;;;;7.70;45.88;100891.44;5054202;28;20041;-82
2021/01/25 08:53:44;;;;;;;10.27;6.30;;;;;;;7.43;46.49;100899.38;5056923;28;20037;-76
2021/01/25 08:56:14;;;;;;;9.07;6.37;;;;;;;7.57;46.38;100894.06;5069053;28;20537;-76
2021/01/25 08:58:39;;;;;;;9.18;5.78;;;;;;;7.51;46.16;100893.31;5064647;28;20024;-78
2021/01/25 09:01:23;;;;;;;10.13;5.97;;;;;;;7.55;46.49;100905.22;5053990;28;20521;-77
2021/01/25 09:03:48;;;;;;;12.13;5.93;;;;;;;7.69;46.19;100910.78;5066736;28;20025;-79
2021/01/25 09:06:14;;;;;;;9.33;6.43;;;;;;;7.73;46.23;100917.28;5069047;28;20078;-83
2021/01/25 09:08:40;;;;;;;9.10;6.00;;;;;;;7.78;45.93;100914.47;5061133;28;20021;-82
2021/01/25 09:11:06;;;;;;;9.23;6.53;;;;;;;7.99;45.67;100913.13;5067530;28;20033;-85
2021/01/25 09:13:32;;;;;;;9.87;6.27;;;;;;;7.93;45.35;100919.72;5065399;28;20610;-79
2021/01/25 09:15:58;;;;;;;8.23;6.07;;;;;;;8.12;45.16;100910.81;5069657;28;20025;-82
2021/01/25 09:18:24;;;;;;;14.20;6.57;;;;;;;8.13;45.26;100915.16;5064091;28;20869;-80
2021/01/25 09:20:49;;;;;;;11.53;6.43;;;;;;;8.18;45.34;100905.00;5071525;28;20032;-82
2021/01/25 09:23:18;;;;;;;14.83;7.33;;;;;;;8.29;44.91;100909.19;5065850;28;20077;-80
2021/01/25 09:25:45;;;;;;;10.23;6.70;;;;;;;8.16;45.40;100920.00;5069888;28;20043;-79
2021/01/25 09:28:11;;;;;;;14.20;7.77;;;;;;;8.29;45.01;100914.66;5067943;28;20036;-81
2021/01/25 09:30:36;;;;;;;24.60;16.77;;;;;;;8.28;44.92;100918.47;5067175;28;20786;-80
2021/01/25 09:33:02;;;;;;;11.43;7.40;;;;;;;8.23;45.04;100915.00;5068231;28;20461;-81
2021/01/25 09:35:27;;;;;;;12.40;6.37;;;;;;;8.15;45.37;100912.94;5063172;28;20040;-80
2021/01/25 09:37:53;;;;;;;8.90;6.07;;;;;;;8.14;45.43;100912.13;5053961;28;20025;-79
2021/01/25 09:40:19;;;;;;;8.80;6.13;;;;;;;8.30;45.12;100916.25;5064856;28;20024;-81
2021/01/25 09:42:45;;;;;;;8.37;6.03;;;;;;;8.47;44.89;100925.91;5053427;28;20060;-79
2021/01/25 09:45:15;;;;;;;11.53;6.47;;;;;;;8.49;44.72;100926.41;5067005;28;20040;-80
2021/01/25 09:47:41;;;;;;;13.05;6.88;;;;;;;8.81;44.26;100926.44;5067539;28;20111;-79
2021/01/25 09:50:10;;;;;;;8.97;5.90;;;;;;;8.77;44.73;100927.34;5061301;28;20047;-80
2021/01/25 09:52:40;;;;;;;10.65;7.93;;;;;;;8.65;45.25;100933.25;5069875;28;20447;-79
2021/01/25 09:55:06;;;;;;;8.77;5.47;;;;;;;9.01;44.28;100935.41;5067081;28;20731;-82
2021/01/25 09:57:32;;;;;;;8.33;5.83;;;;;;;9.13;43.72;100938.47;5051908;28;20410;-80
2021/01/25 09:59:58;;;;;;;13.40;10.60;;;;;;;8.96;44.60;100933.56;5066240;28;20028;-73
2021/01/25 10:02:24;;;;;;;10.60;7.40;;;;;;;9.15;44.17;100930.81;5070733;28;20020;-78
2021/01/25 10:04:49;;;;;;;10.07;8.30;;;;;;;9.14;44.65;100940.09;5066843;28;20036;-79
2021/01/25 10:07:15;;;;;;;12.50;8.00;;;;;;;9.33;44.11;100940.06;5067053;28;20037;-77
2021/01/25 10:09:40;;;;;;;14.43;10.57;;;;;;;9.43;44.34;100934.41;5068735;28;20029;-78
2021/01/25 10:12:06;;;;;;;14.20;6.40;;;;;;;9.58;43.71;100936.03;5066573;28;20044;-80
2021/01/25 10:14:32;;;;;;;13.53;8.20;;;;;;;9.71;43.63;100938.78;5050374;28;20040;-75
2021/01/25 10:16:58;;;;;;;8.50;6.10;;;;;;;9.81;43.69;100937.78;5067057;28;20025;-75
2021/01/25 10:19:24;;;;;;;12.33;6.47;;;;;;;10.00;43.12;100943.97;5068451;28;20028;-75
2021/01/25 10:21:49;;;;;;;8.47;5.80;;;;;;;10.05;43.42;100947.69;5063998;28;20078;-73
2021/01/25 10:24:15;;;;;;;10.73;6.90;;;;;;;10.15;43.03;100939.31;5069503;28;20082;-75
2021/01/25 10:26:40;;;;;;;9.87;6.50;;;;;;;10.13;43.37;100947.81;5063602;28;20028;-74
2021/01/25 10:29:06;;;;;;;8.50;5.43;;;;;;;10.01;43.38;100952.97;5071202;28;20035;-74
2021/01/25 10:31:32;;;;;;;8.73;5.78;;;;;;;10.22;43.30;100956.94;5060734;28;20542;-72
2021/01/25 10:33:57;;;;;;;9.50;6.33;;;;;;;10.18;43.31;100957.78;5071452;28;20024;-76
2021/01/25 10:36:23;;;;;;;9.83;5.47;;;;;;;10.06;43.82;100960.25;5061263;28;20394;-76
2021/01/25 10:38:48;;;;;;;9.37;5.37;;;;;;;9.81;44.16;100964.25;5071453;28;20052;-81
2021/01/25 10:41:15;;;;;;;14.23;6.57;;;;;;;9.97;43.62;100968.31;5062496;28;20397;-74
2021/01/25 10:43:41;;;;;;;10.03;5.23;;;;;;;9.98;43.69;100973.50;5071560;28;20025;-76
2021/01/25 10:46:07;;;;;;;7.60;5.03;;;;;;;10.13;43.41;100971.56;5065993;28;20107;-85
2021/01/25 10:48:33;;;;;;;9.83;5.17;;;;;;;10.23;43.21;100976.84;5073292;28;20155;-74
2021/01/25 10:50:58;;;;;;;6.40;4.77;;;;;;;10.02;43.70;100979.94;5065795;28;20051;-77
2021/01/25 10:53:24;;;;;;;7.27;5.40;;;;;;;10.34;43.21;100989.16;5075286;28;20040;-75
2021/01/25 10:55:49;;;;;;;8.97;5.03;;;;;;;9.75;44.39;100974.50;5065550;28;20028;-75
2021/01/25 10:58:15;;;;;;;9.53;5.03;;;;;;;10.12;43.80;100981.66;5073849;28;20451;-83
2021/01/25 11:00:40;;;;;;;8.23;5.20;;;;;;;10.43;43.20;100984.63;5068535;28;20123;-80
2021/01/25 11:03:06;;;;;;;7.63;4.87;;;;;;;10.49;43.11;100988.03;5075942;28;20429;-76
2021/01/25 11:05:31;;;;;;;81.97;56.70;;;;;;;10.50;42.92;100995.13;5066623;28;20032;-77
2021/01/25 11:07:57;;;;;;;74.90;43.93;;;;;;;10.67;42.88;100998.03;5074370;28;20033;-78
2021/01/25 11:10:27;;;;;;;14.20;8.10;;;;;;;10.62;42.78;101002.78;5066306;28;20516;-77
2021/01/25 11:12:53;;;;;;;26.70;14.13;;;;;;;10.65;43.01;101000.25;5074096;28;20128;-75
2021/01/25 11:15:19;;;;;;;29.75;18.08;;;;;;;10.65;42.98;101010.38;5066284;28;20028;-76
2021/01/25 11:17:45;;;;;;;10.90;6.70;;;;;;;10.52;43.31;101001.09;5075694;28;20112;-78
2021/01/25 11:20:11;;;;;;;27.45;14.80;;;;;;;10.63;43.25;100998.94;5065458;28;20031;-78
2021/01/25 11:22:37;;;;;;;13.57;7.93;;;;;;;10.87;42.88;101001.41;5074972;28;20032;-77
2021/01/25 11:25:04;;;;;;;52.30;28.63;;;;;;;10.96;42.79;101005.84;5066086;28;20033;-78